createdAt,value
2022-09-12T00:01:13.794Z,12.07
2022-09-12T00:03:40.706Z,12.00
2022-09-12T00:06:13.057Z,12.00
2022-09-12T00:08:39.781Z,11.70
2022-09-12T00:11:09.475Z,12.16
2022-09-12T00:13:41.445Z,11.90
2022-09-12T00:16:15.005Z,11.55
2022-09-12T00:18:41.476Z,12.00
2022-09-12T00:21:08.271Z,11.97
2022-09-12T00:23:34.718Z,10.40
2022-09-12T00:26:06.670Z,10.28
2022-09-12T00:28:35.279Z,12.08
2022-09-12T00:31:08.850Z,12.05
2022-09-12T00:33:36.222Z,11.84
2022-09-12T00:36:08.425Z,12.03
2022-09-12T00:38:38.460Z,11.66
2022-09-12T00:41:05.927Z,11.01
2022-09-12T00:43:44.477Z,10.80
2022-09-12T00:46:28.914Z,11.97
2022-09-12T00:49:00.935Z,12.00
2022-09-12T00:51:31.368Z,12.07
2022-09-12T00:54:00.354Z,11.15
2022-09-12T00:56:27.888Z,11.96
2022-09-12T00:59:01.014Z,12.23
2022-09-12T01:01:32.194Z,10.97
2022-09-12T01:03:59.730Z,10.95
2022-09-12T01:06:30.219Z,11.16
2022-09-12T01:08:57.655Z,12.28
2022-09-12T01:11:24.046Z,12.14
2022-09-12T01:13:51.327Z,11.86
2022-09-12T01:16:18.178Z,11.73
2022-09-12T01:19:19.286Z,12.10
2022-09-12T01:21:56.474Z,12.03
2022-09-12T01:24:47.969Z,11.68
2022-09-12T01:27:32.018Z,12.03
2022-09-12T01:30:24.138Z,11.96
2022-09-12T01:32:59.570Z,10.51
2022-09-12T01:35:44.516Z,11.90
2022-09-12T01:38:27.046Z,10.39
2022-09-12T01:41:19.551Z,11.92
2022-09-12T01:44:02.150Z,11.90
2022-09-12T01:46:35.772Z,11.92
2022-09-12T01:49:09.337Z,11.97
2022-09-12T01:51:41.394Z,11.05
2022-09-12T01:54:13.419Z,10.58
2022-09-12T01:56:43.635Z,11.93
2022-09-12T01:59:21.898Z,11.94
2022-09-12T02:01:55.951Z,10.37
2022-09-12T02:04:33.501Z,10.74
2022-09-12T02:07:19.619Z,12.01
2022-09-12T02:10:02.203Z,10.43
2022-09-12T02:12:42.234Z,10.67
2022-09-12T02:15:10.678Z,12.02
2022-09-12T02:17:41.174Z,10.62
2022-09-12T02:20:43.934Z,11.78
2022-09-12T02:23:16.993Z,11.88
2022-09-12T02:25:46.585Z,11.89
2022-09-12T02:28:22.169Z,11.75
2022-09-12T02:31:06.480Z,11.88
2022-09-12T02:34:05.394Z,11.87
2022-09-12T02:36:46.477Z,10.83
2022-09-12T02:39:13.143Z,11.78
2022-09-12T02:41:39.609Z,11.37
2022-09-12T02:44:06.535Z,11.89
2022-09-12T02:46:41.158Z,11.40
2022-09-12T02:49:09.445Z,11.59
2022-09-12T02:51:37.306Z,11.00
2022-09-12T02:54:12.932Z,11.09
2022-09-12T02:56:42.509Z,11.92
2022-09-12T02:59:13.766Z,11.92
2022-09-12T03:02:09.715Z,10.53
2022-09-12T03:04:49.926Z,11.88
2022-09-12T03:07:31.650Z,11.76
2022-09-12T03:10:24.061Z,10.32
2022-09-12T03:13:06.584Z,11.78
2022-09-12T03:15:32.883Z,11.83
2022-09-12T03:18:06.355Z,11.86
2022-09-12T03:20:53.756Z,11.88
2022-09-12T03:23:33.763Z,11.85
2022-09-12T03:26:15.763Z,11.11
2022-09-12T03:28:43.884Z,11.75
2022-09-12T03:31:15.747Z,11.53
2022-09-12T03:33:42.487Z,11.32
2022-09-12T03:36:21.342Z,11.72
2022-09-12T03:38:47.768Z,11.58
2022-09-12T03:41:14.437Z,11.66
2022-09-12T03:43:41.084Z,11.26
2022-09-12T03:46:08.132Z,11.23
2022-09-12T03:48:34.734Z,11.66
2022-09-12T03:51:03.376Z,11.42
2022-09-12T03:53:30.650Z,11.63
2022-09-12T03:55:58.261Z,10.47
2022-09-12T03:58:25.893Z,11.64
2022-09-12T04:00:52.338Z,11.36
2022-09-12T04:03:19.317Z,11.47
2022-09-12T04:05:46.925Z,10.88
2022-09-12T04:08:14.956Z,11.42
2022-09-12T04:10:41.434Z,11.42
2022-09-12T04:13:08.024Z,10.11
2022-09-12T04:15:34.498Z,10.52
2022-09-12T04:18:05.577Z,10.70
2022-09-12T04:20:32.600Z,11.24
2022-09-12T04:22:58.962Z,11.30
2022-09-12T04:25:25.649Z,11.54
2022-09-12T04:27:52.081Z,11.44
2022-09-12T04:30:18.605Z,9.76
2022-09-12T04:32:45.214Z,11.48
2022-09-12T04:35:12.822Z,11.45
2022-09-12T04:37:39.157Z,11.26
2022-09-12T04:40:06.067Z,11.36
2022-09-12T04:42:32.727Z,11.20
2022-09-12T04:44:59.074Z,11.28
2022-09-12T04:47:25.423Z,11.18
2022-09-12T04:49:52.441Z,10.52
2022-09-12T04:52:18.952Z,11.26
2022-09-12T04:54:45.438Z,11.27
2022-09-12T04:57:11.921Z,9.49
2022-09-12T04:59:38.630Z,10.98
2022-09-12T05:02:08.291Z,11.14
2022-09-12T05:04:36.018Z,11.35
2022-09-12T05:07:03.084Z,11.04
2022-09-12T05:09:29.496Z,10.37
2022-09-12T05:12:04.679Z,11.17
2022-09-12T05:14:33.115Z,11.20
2022-09-12T05:17:01.400Z,10.51
2022-09-12T05:19:30.109Z,11.54
2022-09-12T05:21:56.581Z,11.62
2022-09-12T05:24:22.986Z,11.68
2022-09-12T05:26:49.319Z,11.70
2022-09-12T05:29:15.859Z,11.83
2022-09-12T05:31:42.280Z,10.90
2022-09-12T05:34:09.191Z,12.03
2022-09-12T05:36:37.106Z,12.11
2022-09-12T05:39:04.685Z,12.20
2022-09-12T05:41:33.438Z,12.12
2022-09-12T05:44:02.415Z,12.34
2022-09-12T05:46:32.005Z,12.23
2022-09-12T05:49:04.003Z,12.45
2022-09-12T05:51:34.198Z,12.56
2022-09-12T05:54:03.270Z,12.63
2022-09-12T05:56:33.409Z,12.76
2022-09-12T05:59:05.234Z,11.68
2022-09-12T06:01:34.226Z,12.84
2022-09-12T06:04:04.005Z,11.29
2022-09-12T06:06:31.978Z,12.82
2022-09-12T06:09:01.033Z,11.13
2022-09-12T06:11:29.790Z,13.07
2022-09-12T06:13:58.202Z,13.02
2022-09-12T06:16:27.292Z,11.99
2022-09-12T06:18:56.316Z,12.05
2022-09-12T06:21:24.314Z,13.33
2022-09-12T06:23:51.239Z,13.35
2022-09-12T06:26:21.384Z,13.08
2022-09-12T06:28:47.828Z,13.69
2022-09-12T06:31:17.526Z,13.90
2022-09-12T06:33:46.945Z,14.00
2022-09-12T06:36:18.889Z,14.09
2022-09-12T06:38:48.762Z,14.23
2022-09-12T06:41:15.801Z,14.29
2022-09-12T06:43:42.729Z,12.88
2022-09-12T06:46:10.639Z,14.56
2022-09-12T06:48:41.545Z,13.76
2022-09-12T06:51:16.876Z,14.84
2022-09-12T06:53:44.741Z,13.05
2022-09-12T06:56:13.850Z,13.51
2022-09-12T06:58:41.741Z,14.62
2022-09-12T07:01:16.556Z,13.52
2022-09-12T07:03:47.662Z,13.68
2022-09-12T07:06:15.936Z,15.23
2022-09-12T07:08:42.860Z,15.32
2022-09-12T07:11:21.206Z,15.42
2022-09-12T07:13:50.096Z,15.54
2022-09-12T07:16:19.709Z,14.39
2022-09-12T07:19:00.198Z,15.55
2022-09-12T07:21:27.185Z,15.64
2022-09-12T07:23:55.294Z,15.72
2022-09-12T07:26:21.696Z,15.81
2022-09-12T07:28:53.714Z,15.80
2022-09-12T07:31:23.030Z,14.81
2022-09-12T07:33:54.331Z,15.97
2022-09-12T07:36:23.462Z,16.08
2022-09-12T07:38:57.369Z,16.09
2022-09-12T07:41:26.965Z,16.47
2022-09-12T07:43:55.118Z,16.57
2022-09-12T07:46:22.457Z,16.75
2022-09-12T07:48:57.374Z,16.93
2022-09-12T07:51:25.190Z,16.86
2022-09-12T07:53:51.764Z,16.90
2022-09-12T07:56:19.858Z,17.08
2022-09-12T07:58:46.231Z,17.14
2022-09-12T08:01:17.968Z,17.39
2022-09-12T08:03:47.186Z,17.49
2022-09-12T08:06:15.949Z,17.26
2022-09-12T08:08:43.350Z,17.09
2022-09-12T08:11:12.374Z,17.29
2022-09-12T08:13:40.310Z,17.22
2022-09-12T08:16:18.658Z,17.41
2022-09-12T08:18:45.049Z,17.27
2022-09-12T08:21:20.841Z,17.55
2022-09-12T08:23:51.715Z,16.31
2022-09-12T08:26:18.173Z,16.89
2022-09-12T08:28:46.688Z,17.94
2022-09-12T08:31:18.434Z,17.85
2022-09-12T08:33:45.132Z,16.90
2022-09-12T08:36:12.561Z,18.00
2022-09-12T08:38:41.959Z,18.21
2022-09-12T08:41:27.884Z,18.50
2022-09-12T08:44:12.883Z,18.65
2022-09-12T08:46:48.740Z,18.84
2022-09-12T08:49:27.389Z,18.64
2022-09-12T08:51:55.753Z,19.13
2022-09-12T08:54:28.796Z,18.25
2022-09-12T08:57:02.886Z,19.47
2022-09-12T08:59:38.257Z,19.52
2022-09-12T09:02:24.727Z,18.44
2022-09-12T09:05:29.867Z,19.95
2022-09-12T09:08:15.573Z,20.06
2022-09-12T09:11:10.817Z,20.07
2022-09-12T09:14:31.608Z,20.44
2022-09-12T09:17:00.000Z,20.63
2022-09-12T09:19:42.397Z,20.83
2022-09-12T09:22:19.053Z,20.57
2022-09-12T09:24:53.182Z,19.91
2022-09-12T09:27:41.906Z,21.23
2022-09-12T09:30:17.631Z,21.22
2022-09-12T09:32:47.731Z,21.18
2022-09-12T09:35:20.308Z,21.28
2022-09-12T09:38:00.886Z,21.37
2022-09-12T09:40:37.541Z,20.46
2022-09-12T09:43:27.373Z,21.38
2022-09-12T09:45:54.192Z,21.31
2022-09-12T09:48:29.779Z,21.32
2022-09-12T09:50:59.976Z,21.30
2022-09-12T09:53:50.099Z,21.71
2022-09-12T09:56:36.774Z,21.81
2022-09-12T09:59:20.214Z,21.95
2022-09-12T10:01:54.592Z,21.99
2022-09-12T10:04:24.101Z,22.36
2022-09-12T10:06:58.782Z,22.53
2022-09-12T10:09:28.257Z,21.28
2022-09-12T10:11:56.507Z,22.74
2022-09-12T10:14:36.819Z,21.81
2022-09-12T10:17:39.833Z,23.02
2022-09-12T10:20:31.043Z,23.05
2022-09-12T10:23:29.348Z,21.87
2022-09-12T10:26:00.756Z,23.08
2022-09-12T10:28:39.283Z,23.16
2022-09-12T10:31:08.407Z,23.03
2022-09-12T10:33:52.624Z,23.06
2022-09-12T10:36:20.865Z,23.22
2022-09-12T10:39:01.782Z,23.15
2022-09-12T10:41:37.380Z,23.25
2022-09-12T10:44:14.490Z,23.35
2022-09-12T10:46:40.970Z,22.06
2022-09-12T10:49:23.529Z,23.55
2022-09-12T10:51:51.415Z,22.46
2022-09-12T10:54:21.279Z,23.07
2022-09-12T10:56:56.467Z,23.85
2022-09-12T10:59:38.637Z,22.64
2022-09-12T11:02:14.593Z,24.03
2022-09-12T11:04:56.508Z,24.22
2022-09-12T11:07:39.145Z,24.29
2022-09-12T11:10:24.033Z,23.31
2022-09-12T11:13:13.279Z,24.57
2022-09-12T11:15:54.941Z,24.56
2022-09-12T11:18:46.456Z,24.28
2022-09-12T11:21:33.892Z,24.46
2022-09-12T11:24:32.721Z,24.22
2022-09-12T11:27:10.971Z,24.28
2022-09-12T11:29:47.915Z,24.26
2022-09-12T11:32:45.995Z,23.88
2022-09-12T11:35:17.603Z,24.00
2022-09-12T11:38:08.836Z,24.29
2022-09-12T11:40:58.689Z,24.50
2022-09-12T11:43:34.086Z,24.61
2022-09-12T11:46:25.173Z,24.69
2022-09-12T11:48:59.984Z,24.38
2022-09-12T11:51:34.000Z,24.60
2022-09-12T11:54:12.018Z,24.23
2022-09-12T11:56:44.706Z,24.58
2022-09-12T11:59:26.915Z,24.68
2022-09-12T12:01:59.208Z,23.65
2022-09-12T12:04:34.449Z,23.91
2022-09-12T12:07:11.046Z,24.91
2022-09-12T12:09:50.319Z,25.23
2022-09-12T12:12:24.175Z,25.35
2022-09-12T12:14:53.114Z,25.18
2022-09-12T12:17:22.958Z,24.11
2022-09-12T12:20:04.970Z,25.45
2022-09-12T12:22:33.703Z,24.71
2022-09-12T12:25:06.751Z,25.65
2022-09-12T12:27:53.514Z,25.79
2022-09-12T12:30:28.932Z,25.96
2022-09-12T12:33:12.956Z,26.03
2022-09-12T12:35:47.762Z,26.14
2022-09-12T12:38:38.272Z,25.77
2022-09-12T12:41:16.961Z,25.91
2022-09-12T12:43:46.715Z,24.91
2022-09-12T12:46:15.082Z,25.90
2022-09-12T12:49:09.679Z,25.94
2022-09-12T12:51:49.307Z,24.48
2022-09-12T12:54:41.520Z,25.62
2022-09-12T12:57:26.516Z,25.65
2022-09-12T13:00:00.887Z,25.74
2022-09-12T13:02:32.377Z,24.66
2022-09-12T13:05:02.486Z,25.51
2022-09-12T13:07:39.549Z,23.98
2022-09-12T13:10:07.862Z,25.82
2022-09-12T13:12:37.853Z,26.12
2022-09-12T13:15:25.118Z,24.58
2022-09-12T13:17:52.014Z,25.91
2022-09-12T13:20:30.086Z,26.24
2022-09-12T13:22:57.373Z,26.15
2022-09-12T13:25:28.745Z,25.90
2022-09-12T13:28:01.066Z,24.67
2022-09-12T13:30:31.272Z,25.59
2022-09-12T13:33:03.634Z,24.99
2022-09-12T13:35:43.321Z,25.58
2022-09-12T13:38:31.471Z,25.91
2022-09-12T13:41:09.646Z,25.85
2022-09-12T13:43:46.926Z,24.83
2022-09-12T13:46:17.570Z,25.77
2022-09-12T13:48:44.474Z,24.76
2022-09-12T13:51:23.557Z,25.95
2022-09-12T13:53:52.217Z,26.18
2022-09-12T13:56:20.415Z,26.18
2022-09-12T13:58:57.495Z,26.37
2022-09-12T14:01:36.530Z,26.25
2022-09-12T14:04:33.913Z,26.30
2022-09-12T14:07:03.794Z,26.26
2022-09-12T14:09:38.507Z,26.65
2022-09-12T14:12:20.485Z,26.38
2022-09-12T14:14:49.908Z,26.25
2022-09-12T14:17:29.718Z,26.18
2022-09-12T14:19:59.348Z,26.08
2022-09-12T14:22:29.790Z,25.83
2022-09-12T14:24:58.636Z,24.39
2022-09-12T14:27:29.105Z,25.14
2022-09-12T14:30:02.989Z,24.96
2022-09-12T14:32:29.546Z,25.91
2022-09-12T14:35:25.245Z,25.96
2022-09-12T14:37:51.888Z,25.85
2022-09-12T14:40:21.503Z,25.18
2022-09-12T14:42:50.337Z,26.33
2022-09-12T14:45:28.853Z,26.51
2022-09-12T14:47:56.776Z,26.59
2022-09-12T14:50:29.625Z,26.21
2022-09-12T14:53:06.963Z,25.22
2022-09-12T14:55:42.220Z,25.94
2022-09-12T14:58:20.489Z,25.68
2022-09-12T15:01:23.180Z,25.70
2022-09-12T15:03:53.272Z,25.96
2022-09-12T15:06:28.784Z,25.98
2022-09-12T15:08:57.297Z,26.11
2022-09-12T15:11:24.110Z,26.06
2022-09-12T15:13:50.514Z,24.71
2022-09-12T15:16:17.378Z,25.12
2022-09-12T15:18:43.751Z,25.60
2022-09-12T15:21:16.507Z,25.65
2022-09-12T15:23:50.736Z,25.24
2022-09-12T15:26:19.668Z,25.49
2022-09-12T15:28:46.425Z,24.27
2022-09-12T15:31:24.577Z,24.20
2022-09-12T15:33:51.051Z,25.17
2022-09-12T15:36:20.585Z,25.06
2022-09-12T15:38:47.997Z,25.13
2022-09-12T15:41:30.310Z,25.16
2022-09-12T15:43:57.145Z,24.19
2022-09-12T15:46:23.835Z,24.05
2022-09-12T15:48:50.319Z,25.21
2022-09-12T15:51:21.484Z,24.94
2022-09-12T15:53:49.329Z,24.41
2022-09-12T15:56:17.251Z,25.00
2022-09-12T15:58:57.587Z,24.93
2022-09-12T16:01:25.338Z,24.58
2022-09-12T16:03:51.968Z,24.86
2022-09-12T16:06:18.294Z,24.77
2022-09-12T16:08:44.679Z,23.95
2022-09-12T16:11:19.583Z,24.63
2022-09-12T16:13:45.941Z,23.74
2022-09-12T16:16:12.394Z,24.50
2022-09-12T16:18:42.001Z,24.35
2022-09-12T16:21:12.779Z,24.45
2022-09-12T16:23:45.604Z,24.44
2022-09-12T16:26:12.122Z,24.40
2022-09-12T16:28:38.855Z,24.49
2022-09-12T16:31:07.625Z,24.44
2022-09-12T16:33:34.355Z,24.45
2022-09-12T16:36:12.309Z,24.36
2022-09-12T16:38:43.549Z,24.36
2022-09-12T16:41:10.621Z,23.14
2022-09-12T16:43:37.486Z,22.79
2022-09-12T16:46:11.438Z,24.28
2022-09-12T16:48:42.312Z,23.44
2022-09-12T16:51:08.729Z,23.94
2022-09-12T16:53:37.085Z,24.06
2022-09-12T16:56:05.195Z,24.01
2022-09-12T16:58:48.202Z,23.86
2022-09-12T17:01:18.012Z,23.81
2022-09-12T17:03:44.808Z,23.00
2022-09-12T17:06:13.363Z,23.80
2022-09-12T17:08:42.867Z,23.72
2022-09-12T17:11:12.729Z,23.64
2022-09-12T17:14:02.612Z,23.43
2022-09-12T17:16:27.378Z,23.24
2022-09-12T17:18:54.830Z,23.42
2022-09-12T17:21:21.805Z,23.36
2022-09-12T17:23:49.015Z,23.22
2022-09-12T17:26:15.858Z,23.18
2022-09-12T17:28:42.762Z,22.66
2022-09-12T17:31:11.700Z,22.93
2022-09-12T17:33:38.984Z,21.90
2022-09-12T17:36:09.114Z,22.42
2022-09-12T17:38:37.310Z,22.70
2022-09-12T17:41:15.993Z,22.59
2022-09-12T17:43:42.899Z,21.12
2022-09-12T17:46:09.822Z,20.61
2022-09-12T17:48:36.279Z,22.20
2022-09-12T17:51:10.610Z,22.11
2022-09-12T17:53:37.341Z,21.71
2022-09-12T17:56:05.322Z,21.89
2022-09-12T17:58:33.214Z,21.45
2022-09-12T18:01:26.957Z,21.71
2022-09-12T18:03:55.522Z,21.57
2022-09-12T18:06:23.032Z,21.48
2022-09-12T18:08:49.362Z,20.06
2022-09-12T18:11:15.958Z,21.31
2022-09-12T18:13:42.366Z,20.25
2022-09-12T18:16:10.914Z,20.84
2022-09-12T18:18:38.432Z,21.00
2022-09-12T18:21:06.844Z,20.92
2022-09-12T18:23:33.880Z,19.60
2022-09-12T18:26:02.840Z,20.17
2022-09-12T18:28:29.362Z,19.85
2022-09-12T18:30:55.755Z,20.75
2022-09-12T18:33:24.194Z,20.43
2022-09-12T18:35:50.962Z,20.35
2022-09-12T18:38:17.577Z,20.54
2022-09-12T18:40:43.982Z,19.34
2022-09-12T18:43:10.370Z,20.44
2022-09-12T18:45:36.846Z,19.17
2022-09-12T18:48:06.084Z,20.32
2022-09-12T18:50:32.996Z,20.27
2022-09-12T18:52:59.976Z,20.17
2022-09-12T18:55:26.646Z,20.09
2022-09-12T18:57:54.786Z,18.97
2022-09-12T19:00:21.516Z,20.01
2022-09-12T19:02:47.918Z,19.80
2022-09-12T19:05:14.351Z,18.85
2022-09-12T19:07:41.154Z,19.89
2022-09-12T19:10:10.501Z,19.88
2022-09-12T19:12:36.870Z,19.73
2022-09-12T19:15:04.080Z,19.79
2022-09-12T19:17:31.041Z,18.70
2022-09-12T19:19:57.424Z,18.31
2022-09-12T19:22:23.924Z,18.86
2022-09-12T19:24:50.288Z,19.28
2022-09-12T19:27:16.714Z,19.23
2022-09-12T19:29:43.181Z,19.54
2022-09-12T19:32:09.552Z,19.53
2022-09-12T19:34:35.938Z,19.50
2022-09-12T19:37:02.415Z,18.25
2022-09-12T19:39:28.881Z,19.43
2022-09-12T19:41:55.262Z,19.07
2022-09-12T19:44:21.804Z,19.20
2022-09-12T19:46:48.450Z,18.93
2022-09-12T19:49:15.009Z,19.13
2022-09-12T19:51:41.455Z,18.96
2022-09-12T19:54:08.065Z,19.04
2022-09-12T19:56:34.468Z,18.18
2022-09-12T19:59:00.829Z,19.12
2022-09-12T20:01:28.489Z,19.31
2022-09-12T20:03:56.237Z,18.70
2022-09-12T20:06:22.713Z,19.29
2022-09-12T20:08:49.360Z,19.29
2022-09-12T20:11:18.149Z,19.29
2022-09-12T20:13:45.715Z,19.30
2022-09-12T20:16:21.015Z,19.29
2022-09-12T20:18:52.125Z,18.04
2022-09-12T20:21:20.681Z,19.29
2022-09-12T20:23:47.562Z,19.27
2022-09-12T20:26:13.951Z,19.26
2022-09-12T20:28:41.489Z,19.11
2022-09-12T20:31:11.995Z,19.24
2022-09-12T20:33:39.053Z,18.00
2022-09-12T20:36:09.730Z,19.24
2022-09-12T20:38:36.540Z,19.23
2022-09-12T20:41:06.272Z,18.85
2022-09-12T20:43:32.859Z,18.95
2022-09-12T20:45:59.410Z,18.36
2022-09-12T20:48:25.897Z,18.47
2022-09-12T20:50:52.331Z,19.07
2022-09-12T20:53:18.773Z,19.00
2022-09-12T20:55:52.314Z,18.94
2022-09-12T20:58:20.368Z,18.87
2022-09-12T21:00:47.343Z,18.64
2022-09-12T21:03:14.804Z,18.69
2022-09-12T21:05:44.909Z,18.28
2022-09-12T21:08:50.378Z,18.50
2022-09-12T21:11:18.547Z,18.49
2022-09-12T21:13:45.133Z,17.34
2022-09-12T21:16:13.985Z,18.37
2022-09-12T21:18:41.181Z,18.42
2022-09-12T21:21:09.255Z,18.34
2022-09-12T21:23:35.734Z,18.30
2022-09-12T21:26:03.136Z,18.26
2022-09-12T21:28:29.606Z,18.14
2022-09-12T21:30:56.029Z,18.02
2022-09-12T21:33:23.434Z,18.26
2022-09-12T21:35:50.253Z,17.12
2022-09-12T21:38:18.142Z,18.22
2022-09-12T21:40:45.305Z,17.16
2022-09-12T21:43:12.936Z,18.00
2022-09-12T21:45:39.794Z,18.21
2022-09-12T21:48:06.177Z,18.19
2022-09-12T21:50:32.534Z,18.06
2022-09-12T21:52:58.913Z,16.79
2022-09-12T21:55:27.321Z,17.94
2022-09-12T21:57:54.770Z,18.04
2022-09-12T22:00:22.388Z,17.87
2022-09-12T22:02:48.957Z,17.82
2022-09-12T22:05:16.098Z,16.32
2022-09-12T22:07:42.569Z,17.59
2022-09-12T22:10:09.361Z,16.46
2022-09-12T22:12:35.875Z,16.01
2022-09-12T22:15:17.554Z,17.85
2022-09-12T22:17:48.826Z,17.79
2022-09-12T22:20:15.287Z,17.75
2022-09-12T22:23:00.341Z,16.54
2022-09-12T22:25:26.836Z,17.48
2022-09-12T22:27:54.402Z,17.64
2022-09-12T22:30:22.449Z,17.61
2022-09-12T22:32:50.389Z,17.40
2022-09-12T22:35:18.377Z,17.54
2022-09-12T22:37:46.881Z,17.50
2022-09-12T22:40:13.416Z,15.94
2022-09-12T22:42:40.379Z,17.39
2022-09-12T22:45:07.638Z,17.33
2022-09-12T22:47:34.038Z,17.29
2022-09-12T22:50:00.412Z,17.24
2022-09-12T22:52:26.990Z,16.52
2022-09-12T22:54:53.479Z,15.54
2022-09-12T22:57:19.874Z,16.64
2022-09-12T22:59:46.567Z,16.94
2022-09-12T23:02:12.904Z,16.90
2022-09-12T23:04:39.794Z,16.82
2022-09-12T23:07:06.563Z,15.59
2022-09-12T23:09:35.395Z,15.55
2022-09-12T23:12:02.560Z,16.64
2022-09-12T23:14:29.132Z,15.41
2022-09-12T23:16:55.640Z,15.27
2022-09-12T23:19:21.982Z,16.68
2022-09-12T23:21:48.354Z,16.45
2022-09-12T23:24:14.753Z,14.75
2022-09-12T23:26:41.100Z,16.67
2022-09-12T23:29:10.444Z,15.39
2022-09-12T23:31:36.974Z,16.54
2022-09-12T23:34:05.807Z,16.65
2022-09-12T23:36:33.493Z,15.00
2022-09-12T23:39:00.087Z,16.29
2022-09-12T23:41:26.645Z,16.55
2022-09-12T23:43:53.127Z,16.40
2022-09-12T23:46:20.221Z,16.47
2022-09-12T23:48:46.839Z,16.43
2022-09-12T23:51:13.942Z,16.39
2022-09-12T23:53:41.016Z,16.37
2022-09-12T23:56:08.209Z,16.34
2022-09-12T23:58:34.638Z,16.30
